Startpagina
METAR-TAF:

METAR-TAF

Vliegvelden :

Koror, Babelthuap Island, Palau

Roman Tmetuchl International Airport

breedte: 07-22N, lengte: 134-32E, hoogte: 54 m

Actueel weer

Dit bericht is 46 minuten geleden gemaakt, om 15:50 UTC
Weinig wind
Temperatuur 25°C
Vochtigheid 94%
Druk 1012 hPa
Zicht: 24.1 km
Verspreide wolken op 1600 ft
Gebroken wolken op 30000 ft

METAR: PTRO 301550Z 00000KT 15SM SCT016 BKN300 25/24 A2988

Tijdstip: 01:36 (16:36 UTC)

Verwachting

Dit bericht is 5 uur en het 14 minuten geleden gemaakt, om 11:22 UTC
Verwachting geldig van 30 om 12 UTC tot 01 om 12 UTC
Wind 3 kt uit variabele richting
Zicht: 10 km
Verspreide wolken op 1600 ft
Verspreide wolken op 12000 ft
buien in de omgeving
Van 30 om 2300 UTC
Wind 7 kt uit het oostnoordoosten
Zicht: 10 km
Verspreide wolken op 1600 ft
Verspreide wolken op 12000 ft
buien in de omgeving

TAF: PTRO 301122Z 3012/0112 VRB03KT P6SM VCSH SCT016 SCT120 FM302300 07007KT P6SM VCSH SCT016 SCT120

Waarnemingen en weersverwachtingen van meer dan 4000 vliegvelden (METAR en TAF).

De beschikbare stations zijn de gele en rode punten op de kaart.

Ga met uw muis naar het station om de naam te zien.

Klik dan om waarnemingen en weersverwachtingen te zien.

kaart wijzigen: klik op de groene knoppen met een zwart kruis om in te zoomen, op de groene knop met een streepje om uit te zoomen of op de groene pijlen voor aangrenzende kaarten.


METAR-TAF: